sensor_id;sensor_type;location;lat;lon;timestamp;P1;durP1;ratioP1;P2;durP2;ratioP2
30062;SDS011;16889;67.864;24.990;2023-05-10T00:02:44;5.50;;;2.20;;
30062;SDS011;16889;67.864;24.990;2023-05-10T00:07:30;3.75;;;2.08;;
30062;SDS011;16889;67.864;24.990;2023-05-10T00:12:16;5.30;;;2.15;;
30062;SDS011;16889;67.864;24.990;2023-05-10T00:17:02;9.82;;;2.40;;
30062;SDS011;16889;67.864;24.990;2023-05-10T00:21:48;7.20;;;2.38;;
30062;SDS011;16889;67.864;24.990;2023-05-10T00:26:34;4.38;;;2.15;;
30062;SDS011;16889;67.864;24.990;2023-05-10T00:31:20;7.55;;;2.17;;
30062;SDS011;16889;67.864;24.990;2023-05-10T00:36:06;6.20;;;2.47;;
30062;SDS011;16889;67.864;24.990;2023-05-10T00:40:52;6.63;;;2.10;;
30062;SDS011;16889;67.864;24.990;2023-05-10T00:45:39;4.28;;;2.10;;
30062;SDS011;16889;67.864;24.990;2023-05-10T00:50:25;6.47;;;2.38;;
30062;SDS011;16889;67.864;24.990;2023-05-10T00:55:11;3.97;;;2.33;;
30062;SDS011;16889;67.864;24.990;2023-05-10T00:59:57;4.00;;;2.25;;
30062;SDS011;16889;67.864;24.990;2023-05-10T01:04:44;3.00;;;1.90;;
30062;SDS011;16889;67.864;24.990;2023-05-10T01:09:30;7.40;;;2.47;;
30062;SDS011;16889;67.864;24.990;2023-05-10T01:14:18;5.28;;;2.60;;
30062;SDS011;16889;67.864;24.990;2023-05-10T01:19:06;9.20;;;2.15;;
30062;SDS011;16889;67.864;24.990;2023-05-10T01:29:18;3.90;;;2.20;;
30062;SDS011;16889;67.864;24.990;2023-05-10T01:34:42;5.25;;;2.40;;
30062;SDS011;16889;67.864;24.990;2023-05-10T01:39:58;4.28;;;1.92;;
30062;SDS011;16889;67.864;24.990;2023-05-10T01:45:00;7.00;;;1.90;;
30062;SDS011;16889;67.864;24.990;2023-05-10T01:50:15;5.18;;;2.22;;
30062;SDS011;16889;67.864;24.990;2023-05-10T01:55:14;6.13;;;2.20;;
30062;SDS011;16889;67.864;24.990;2023-05-10T02:00:03;3.55;;;2.25;;
30062;SDS011;16889;67.864;24.990;2023-05-10T02:04:50;4.50;;;2.13;;
30062;SDS011;16889;67.864;24.990;2023-05-10T02:09:38;3.55;;;2.15;;
30062;SDS011;16889;67.864;24.990;2023-05-10T02:14:26;9.13;;;2.47;;
30062;SDS011;16889;67.864;24.990;2023-05-10T02:19:12;4.90;;;2.20;;
30062;SDS011;16889;67.864;24.990;2023-05-10T02:24:00;5.73;;;2.43;;
30062;SDS011;16889;67.864;24.990;2023-05-10T02:28:49;4.65;;;2.17;;
30062;SDS011;16889;67.864;24.990;2023-05-10T02:33:37;5.43;;;2.20;;
30062;SDS011;16889;67.864;24.990;2023-05-10T02:38:25;4.00;;;2.15;;
30062;SDS011;16889;67.864;24.990;2023-05-10T02:43:14;4.22;;;2.20;;
30062;SDS011;16889;67.864;24.990;2023-05-10T02:48:03;4.03;;;2.20;;
30062;SDS011;16889;67.864;24.990;2023-05-10T02:52:50;7.95;;;2.90;;
30062;SDS011;16889;67.864;24.990;2023-05-10T02:57:38;4.18;;;2.40;;
30062;SDS011;16889;67.864;24.990;2023-05-10T03:02:31;9.63;;;2.58;;
30062;SDS011;16889;67.864;24.990;2023-05-10T03:07:17;7.00;;;2.70;;
30062;SDS011;16889;67.864;24.990;2023-05-10T03:18:01;5.47;;;2.38;;
30062;SDS011;16889;67.864;24.990;2023-05-10T03:23:00;7.28;;;2.28;;
30062;SDS011;16889;67.864;24.990;2023-05-10T03:27:53;7.07;;;2.28;;
30062;SDS011;16889;67.864;24.990;2023-05-10T03:32:40;5.82;;;2.40;;
30062;SDS011;16889;67.864;24.990;2023-05-10T03:37:25;4.70;;;2.40;;
30062;SDS011;16889;67.864;24.990;2023-05-10T03:42:11;8.02;;;2.75;;
30062;SDS011;16889;67.864;24.990;2023-05-10T03:46:57;9.80;;;2.30;;
30062;SDS011;16889;67.864;24.990;2023-05-10T03:51:44;4.40;;;2.22;;
30062;SDS011;16889;67.864;24.990;2023-05-10T03:56:30;5.68;;;2.53;;
30062;SDS011;16889;67.864;24.990;2023-05-10T04:01:16;9.68;;;2.88;;
30062;SDS011;16889;67.864;24.990;2023-05-10T04:06:02;8.40;;;2.60;;
30062;SDS011;16889;67.864;24.990;2023-05-10T04:10:48;5.15;;;2.67;;
30062;SDS011;16889;67.864;24.990;2023-05-10T04:15:34;6.38;;;2.40;;
30062;SDS011;16889;67.864;24.990;2023-05-10T04:20:21;6.68;;;2.65;;
30062;SDS011;16889;67.864;24.990;2023-05-10T04:25:07;6.95;;;2.55;;
30062;SDS011;16889;67.864;24.990;2023-05-10T04:29:53;7.72;;;2.80;;
30062;SDS011;16889;67.864;24.990;2023-05-10T04:34:39;11.40;;;2.90;;
30062;SDS011;16889;67.864;24.990;2023-05-10T04:39:25;5.80;;;2.80;;
30062;SDS011;16889;67.864;24.990;2023-05-10T04:44:11;4.55;;;2.47;;
30062;SDS011;16889;67.864;24.990;2023-05-10T04:48:57;6.30;;;2.50;;
30062;SDS011;16889;67.864;24.990;2023-05-10T04:53:43;7.07;;;2.60;;
30062;SDS011;16889;67.864;24.990;2023-05-10T04:58:29;3.92;;;2.50;;
30062;SDS011;16889;67.864;24.990;2023-05-10T05:03:15;6.82;;;2.95;;
30062;SDS011;16889;67.864;24.990;2023-05-10T05:08:01;5.63;;;2.40;;
30062;SDS011;16889;67.864;24.990;2023-05-10T05:12:47;8.32;;;2.80;;
30062;SDS011;16889;67.864;24.990;2023-05-10T05:17:33;7.95;;;2.65;;
30062;SDS011;16889;67.864;24.990;2023-05-10T05:22:19;8.40;;;2.33;;
30062;SDS011;16889;67.864;24.990;2023-05-10T05:27:11;5.88;;;2.70;;
30062;SDS011;16889;67.864;24.990;2023-05-10T05:31:57;6.63;;;2.35;;
30062;SDS011;16889;67.864;24.990;2023-05-10T05:36:43;6.43;;;2.65;;
30062;SDS011;16889;67.864;24.990;2023-05-10T05:41:30;5.10;;;2.30;;
30062;SDS011;16889;67.864;24.990;2023-05-10T05:46:16;6.40;;;2.30;;
30062;SDS011;16889;67.864;24.990;2023-05-10T05:51:02;5.22;;;2.63;;
30062;SDS011;16889;67.864;24.990;2023-05-10T05:55:54;6.80;;;2.63;;
30062;SDS011;16889;67.864;24.990;2023-05-10T06:00:42;7.35;;;2.80;;
30062;SDS011;16889;67.864;24.990;2023-05-10T06:05:28;7.63;;;2.63;;
30062;SDS011;16889;67.864;24.990;2023-05-10T06:10:14;5.88;;;2.83;;
30062;SDS011;16889;67.864;24.990;2023-05-10T06:15:00;9.93;;;2.92;;
30062;SDS011;16889;67.864;24.990;2023-05-10T06:19:47;6.25;;;2.50;;
30062;SDS011;16889;67.864;24.990;2023-05-10T06:24:33;7.82;;;2.60;;
30062;SDS011;16889;67.864;24.990;2023-05-10T06:29:19;5.72;;;2.53;;
30062;SDS011;16889;67.864;24.990;2023-05-10T06:34:05;6.10;;;2.72;;
30062;SDS011;16889;67.864;24.990;2023-05-10T06:38:53;6.82;;;2.80;;
30062;SDS011;16889;67.864;24.990;2023-05-10T06:43:39;5.97;;;2.60;;
30062;SDS011;16889;67.864;24.990;2023-05-10T06:48:26;13.33;;;2.80;;
30062;SDS011;16889;67.864;24.990;2023-05-10T06:53:12;5.13;;;2.63;;
30062;SDS011;16889;67.864;24.990;2023-05-10T06:57:58;5.80;;;2.40;;
30062;SDS011;16889;67.864;24.990;2023-05-10T07:02:44;4.65;;;2.50;;
30062;SDS011;16889;67.864;24.990;2023-05-10T07:07:30;5.85;;;2.50;;
30062;SDS011;16889;67.864;24.990;2023-05-10T07:12:16;4.22;;;2.35;;
30062;SDS011;16889;67.864;24.990;2023-05-10T07:17:02;7.45;;;2.78;;
30062;SDS011;16889;67.864;24.990;2023-05-10T07:21:48;7.80;;;2.72;;
30062;SDS011;16889;67.864;24.990;2023-05-10T07:26:35;9.30;;;2.95;;
30062;SDS011;16889;67.864;24.990;2023-05-10T07:31:21;9.02;;;3.05;;
30062;SDS011;16889;67.864;24.990;2023-05-10T07:36:07;6.32;;;2.88;;
30062;SDS011;16889;67.864;24.990;2023-05-10T07:40:53;7.70;;;2.75;;
30062;SDS011;16889;67.864;24.990;2023-05-10T07:45:39;10.82;;;2.80;;
30062;SDS011;16889;67.864;24.990;2023-05-10T07:50:25;9.82;;;2.92;;
30062;SDS011;16889;67.864;24.990;2023-05-10T07:55:11;10.50;;;2.95;;
30062;SDS011;16889;67.864;24.990;2023-05-10T07:59:57;5.72;;;2.95;;
30062;SDS011;16889;67.864;24.990;2023-05-10T08:04:43;12.75;;;2.80;;
30062;SDS011;16889;67.864;24.990;2023-05-10T08:09:28;7.47;;;2.83;;
30062;SDS011;16889;67.864;24.990;2023-05-10T08:14:14;6.45;;;2.70;;
30062;SDS011;16889;67.864;24.990;2023-05-10T08:19:00;7.40;;;2.70;;
30062;SDS011;16889;67.864;24.990;2023-05-10T08:23:46;5.47;;;2.60;;
30062;SDS011;16889;67.864;24.990;2023-05-10T08:28:32;7.88;;;2.72;;
30062;SDS011;16889;67.864;24.990;2023-05-10T08:33:18;9.57;;;2.67;;
30062;SDS011;16889;67.864;24.990;2023-05-10T08:38:05;7.60;;;2.65;;
30062;SDS011;16889;67.864;24.990;2023-05-10T08:42:51;6.90;;;2.92;;
30062;SDS011;16889;67.864;24.990;2023-05-10T08:47:55;8.13;;;2.70;;
30062;SDS011;16889;67.864;24.990;2023-05-10T08:52:41;7.03;;;3.05;;
30062;SDS011;16889;67.864;24.990;2023-05-10T08:57:27;8.02;;;2.70;;
30062;SDS011;16889;67.864;24.990;2023-05-10T09:02:14;6.82;;;2.80;;
30062;SDS011;16889;67.864;24.990;2023-05-10T09:07:00;5.85;;;2.78;;
30062;SDS011;16889;67.864;24.990;2023-05-10T09:11:46;10.95;;;2.83;;
30062;SDS011;16889;67.864;24.990;2023-05-10T09:16:32;8.15;;;2.60;;
30062;SDS011;16889;67.864;24.990;2023-05-10T09:21:19;6.95;;;2.78;;
30062;SDS011;16889;67.864;24.990;2023-05-10T09:26:05;7.57;;;3.28;;
30062;SDS011;16889;67.864;24.990;2023-05-10T09:30:53;9.02;;;3.08;;
30062;SDS011;16889;67.864;24.990;2023-05-10T09:35:40;7.78;;;2.70;;
30062;SDS011;16889;67.864;24.990;2023-05-10T09:40:28;8.65;;;3.08;;
30062;SDS011;16889;67.864;24.990;2023-05-10T09:45:15;5.32;;;2.67;;
30062;SDS011;16889;67.864;24.990;2023-05-10T09:50:01;7.38;;;2.85;;
30062;SDS011;16889;67.864;24.990;2023-05-10T09:54:52;9.63;;;2.72;;
30062;SDS011;16889;67.864;24.990;2023-05-10T09:59:42;6.13;;;2.45;;
30062;SDS011;16889;67.864;24.990;2023-05-10T10:04:28;7.40;;;2.60;;
30062;SDS011;16889;67.864;24.990;2023-05-10T10:09:14;8.13;;;2.70;;
30062;SDS011;16889;67.864;24.990;2023-05-10T10:14:00;6.38;;;2.90;;
30062;SDS011;16889;67.864;24.990;2023-05-10T10:18:47;6.72;;;2.63;;
30062;SDS011;16889;67.864;24.990;2023-05-10T10:23:34;7.68;;;2.80;;
30062;SDS011;16889;67.864;24.990;2023-05-10T10:38:25;6.68;;;3.00;;
30062;SDS011;16889;67.864;24.990;2023-05-10T10:43:27;6.95;;;3.40;;
30062;SDS011;16889;67.864;24.990;2023-05-10T10:48:23;6.75;;;2.63;;
30062;SDS011;16889;67.864;24.990;2023-05-10T10:53:12;5.30;;;2.85;;
30062;SDS011;16889;67.864;24.990;2023-05-10T10:57:58;8.60;;;2.83;;
30062;SDS011;16889;67.864;24.990;2023-05-10T11:02:50;8.98;;;3.20;;
30062;SDS011;16889;67.864;24.990;2023-05-10T11:07:50;7.78;;;3.00;;
30062;SDS011;16889;67.864;24.990;2023-05-10T11:12:50;8.18;;;2.97;;
30062;SDS011;16889;67.864;24.990;2023-05-10T11:17:37;6.97;;;2.90;;
30062;SDS011;16889;67.864;24.990;2023-05-10T11:22:23;9.20;;;2.83;;
30062;SDS011;16889;67.864;24.990;2023-05-10T11:27:10;6.10;;;2.80;;
30062;SDS011;16889;67.864;24.990;2023-05-10T11:31:57;7.22;;;2.67;;
30062;SDS011;16889;67.864;24.990;2023-05-10T11:36:44;9.65;;;3.42;;
30062;SDS011;16889;67.864;24.990;2023-05-10T11:41:39;11.70;;;3.00;;
30062;SDS011;16889;67.864;24.990;2023-05-10T11:46:26;7.43;;;2.90;;
30062;SDS011;16889;67.864;24.990;2023-05-10T11:56:02;6.97;;;2.78;;
30062;SDS011;16889;67.864;24.990;2023-05-10T12:00:49;7.20;;;2.95;;
30062;SDS011;16889;67.864;24.990;2023-05-10T12:05:36;7.57;;;2.97;;
30062;SDS011;16889;67.864;24.990;2023-05-10T12:10:26;12.40;;;2.88;;
30062;SDS011;16889;67.864;24.990;2023-05-10T12:15:30;10.70;;;3.15;;
30062;SDS011;16889;67.864;24.990;2023-05-10T12:20:17;7.30;;;2.70;;
30062;SDS011;16889;67.864;24.990;2023-05-10T12:25:05;5.03;;;2.80;;
30062;SDS011;16889;67.864;24.990;2023-05-10T12:29:53;6.35;;;2.95;;
30062;SDS011;16889;67.864;24.990;2023-05-10T12:34:39;5.53;;;3.00;;
30062;SDS011;16889;67.864;24.990;2023-05-10T12:39:25;6.07;;;2.95;;
30062;SDS011;16889;67.864;24.990;2023-05-10T12:44:22;8.13;;;3.00;;
30062;SDS011;16889;67.864;24.990;2023-05-10T12:49:08;8.48;;;3.00;;
30062;SDS011;16889;67.864;24.990;2023-05-10T12:53:54;7.63;;;3.28;;
30062;SDS011;16889;67.864;24.990;2023-05-10T12:58:40;8.65;;;3.33;;
30062;SDS011;16889;67.864;24.990;2023-05-10T13:03:26;7.95;;;2.90;;
30062;SDS011;16889;67.864;24.990;2023-05-10T13:08:12;10.35;;;3.53;;
30062;SDS011;16889;67.864;24.990;2023-05-10T13:12:58;8.85;;;3.47;;
30062;SDS011;16889;67.864;24.990;2023-05-10T13:17:44;7.35;;;3.60;;
30062;SDS011;16889;67.864;24.990;2023-05-10T13:22:30;9.43;;;3.60;;
30062;SDS011;16889;67.864;24.990;2023-05-10T13:27:16;8.00;;;3.47;;
30062;SDS011;16889;67.864;24.990;2023-05-10T13:32:02;7.25;;;3.30;;
30062;SDS011;16889;67.864;24.990;2023-05-10T13:36:48;9.63;;;3.75;;
30062;SDS011;16889;67.864;24.990;2023-05-10T13:41:34;7.30;;;3.90;;
30062;SDS011;16889;67.864;24.990;2023-05-10T13:46:23;7.22;;;3.50;;
30062;SDS011;16889;67.864;24.990;2023-05-10T13:51:09;9.25;;;3.92;;
30062;SDS011;16889;67.864;24.990;2023-05-10T13:55:55;7.28;;;3.35;;
30062;SDS011;16889;67.864;24.990;2023-05-10T14:00:41;8.18;;;3.58;;
30062;SDS011;16889;67.864;24.990;2023-05-10T14:05:27;7.00;;;3.53;;
30062;SDS011;16889;67.864;24.990;2023-05-10T14:10:13;9.88;;;3.63;;
30062;SDS011;16889;67.864;24.990;2023-05-10T14:14:59;10.20;;;3.30;;
30062;SDS011;16889;67.864;24.990;2023-05-10T14:19:45;7.38;;;3.35;;
30062;SDS011;16889;67.864;24.990;2023-05-10T14:24:31;8.77;;;3.30;;
30062;SDS011;16889;67.864;24.990;2023-05-10T14:29:17;7.00;;;3.20;;
30062;SDS011;16889;67.864;24.990;2023-05-10T14:34:03;5.78;;;3.03;;
30062;SDS011;16889;67.864;24.990;2023-05-10T14:38:49;6.75;;;3.00;;
30062;SDS011;16889;67.864;24.990;2023-05-10T14:43:35;8.98;;;3.20;;
30062;SDS011;16889;67.864;24.990;2023-05-10T14:48:21;7.93;;;3.00;;
30062;SDS011;16889;67.864;24.990;2023-05-10T14:53:07;8.55;;;2.72;;
30062;SDS011;16889;67.864;24.990;2023-05-10T14:57:53;5.63;;;3.05;;
30062;SDS011;16889;67.864;24.990;2023-05-10T15:02:39;8.77;;;2.97;;
30062;SDS011;16889;67.864;24.990;2023-05-10T15:07:25;7.25;;;3.05;;
30062;SDS011;16889;67.864;24.990;2023-05-10T15:12:11;8.13;;;3.00;;
30062;SDS011;16889;67.864;24.990;2023-05-10T15:16:57;7.80;;;3.15;;
30062;SDS011;16889;67.864;24.990;2023-05-10T15:21:43;9.57;;;2.95;;
30062;SDS011;16889;67.864;24.990;2023-05-10T15:26:30;7.07;;;2.88;;
30062;SDS011;16889;67.864;24.990;2023-05-10T15:31:16;8.90;;;3.13;;
30062;SDS011;16889;67.864;24.990;2023-05-10T15:36:01;6.57;;;3.15;;
30062;SDS011;16889;67.864;24.990;2023-05-10T15:40:48;8.30;;;3.08;;
30062;SDS011;16889;67.864;24.990;2023-05-10T15:45:34;6.88;;;3.15;;
30062;SDS011;16889;67.864;24.990;2023-05-10T15:50:20;5.65;;;3.05;;
30062;SDS011;16889;67.864;24.990;2023-05-10T15:55:07;7.18;;;3.33;;
30062;SDS011;16889;67.864;24.990;2023-05-10T15:59:59;10.63;;;3.17;;
30062;SDS011;16889;67.864;24.990;2023-05-10T16:04:45;6.82;;;3.45;;
30062;SDS011;16889;67.864;24.990;2023-05-10T16:09:31;5.18;;;3.00;;
30062;SDS011;16889;67.864;24.990;2023-05-10T16:14:17;5.70;;;2.90;;
30062;SDS011;16889;67.864;24.990;2023-05-10T16:19:05;8.25;;;3.20;;
30062;SDS011;16889;67.864;24.990;2023-05-10T16:23:51;8.52;;;3.15;;
30062;SDS011;16889;67.864;24.990;2023-05-10T16:28:37;5.85;;;3.03;;
30062;SDS011;16889;67.864;24.990;2023-05-10T16:33:24;5.13;;;3.10;;
30062;SDS011;16889;67.864;24.990;2023-05-10T16:38:11;10.23;;;3.45;;
30062;SDS011;16889;67.864;24.990;2023-05-10T16:42:57;7.53;;;3.40;;
30062;SDS011;16889;67.864;24.990;2023-05-10T16:47:43;10.98;;;3.55;;
30062;SDS011;16889;67.864;24.990;2023-05-10T16:52:29;8.57;;;3.58;;
30062;SDS011;16889;67.864;24.990;2023-05-10T16:57:16;7.85;;;3.75;;
30062;SDS011;16889;67.864;24.990;2023-05-10T17:02:02;10.52;;;3.30;;
30062;SDS011;16889;67.864;24.990;2023-05-10T17:06:48;6.85;;;3.42;;
30062;SDS011;16889;67.864;24.990;2023-05-10T17:11:34;6.03;;;3.33;;
30062;SDS011;16889;67.864;24.990;2023-05-10T17:16:20;6.72;;;3.47;;
30062;SDS011;16889;67.864;24.990;2023-05-10T17:21:07;5.20;;;3.47;;
30062;SDS011;16889;67.864;24.990;2023-05-10T17:25:53;9.32;;;3.47;;
30062;SDS011;16889;67.864;24.990;2023-05-10T17:30:39;7.55;;;3.38;;
30062;SDS011;16889;67.864;24.990;2023-05-10T17:35:25;9.95;;;3.50;;
30062;SDS011;16889;67.864;24.990;2023-05-10T17:40:12;8.15;;;3.80;;
30062;SDS011;16889;67.864;24.990;2023-05-10T17:44:58;6.25;;;3.47;;
30062;SDS011;16889;67.864;24.990;2023-05-10T17:49:44;13.52;;;4.30;;
30062;SDS011;16889;67.864;24.990;2023-05-10T17:54:29;8.98;;;3.47;;
30062;SDS011;16889;67.864;24.990;2023-05-10T17:59:16;8.30;;;3.30;;
30062;SDS011;16889;67.864;24.990;2023-05-10T18:04:02;8.30;;;3.78;;
30062;SDS011;16889;67.864;24.990;2023-05-10T18:08:48;7.22;;;3.38;;
30062;SDS011;16889;67.864;24.990;2023-05-10T18:13:34;6.10;;;3.10;;
30062;SDS011;16889;67.864;24.990;2023-05-10T18:18:20;7.28;;;3.40;;
30062;SDS011;16889;67.864;24.990;2023-05-10T18:23:06;10.80;;;3.80;;
30062;SDS011;16889;67.864;24.990;2023-05-10T18:27:52;7.32;;;3.35;;
30062;SDS011;16889;67.864;24.990;2023-05-10T18:32:39;10.52;;;3.78;;
30062;SDS011;16889;67.864;24.990;2023-05-10T18:37:25;8.68;;;3.60;;
30062;SDS011;16889;67.864;24.990;2023-05-10T18:42:11;10.82;;;4.32;;
30062;SDS011;16889;67.864;24.990;2023-05-10T18:46:57;7.85;;;3.90;;
30062;SDS011;16889;67.864;24.990;2023-05-10T18:51:43;11.07;;;3.80;;
30062;SDS011;16889;67.864;24.990;2023-05-10T18:56:29;7.55;;;3.67;;
30062;SDS011;16889;67.864;24.990;2023-05-10T19:01:15;8.52;;;3.90;;
30062;SDS011;16889;67.864;24.990;2023-05-10T19:06:01;8.30;;;3.70;;
30062;SDS011;16889;67.864;24.990;2023-05-10T19:10:47;8.15;;;4.13;;
30062;SDS011;16889;67.864;24.990;2023-05-10T19:15:35;9.13;;;4.22;;
30062;SDS011;16889;67.864;24.990;2023-05-10T19:20:21;8.85;;;3.90;;
30062;SDS011;16889;67.864;24.990;2023-05-10T19:25:07;7.75;;;3.92;;
30062;SDS011;16889;67.864;24.990;2023-05-10T19:29:53;15.90;;;4.25;;
30062;SDS011;16889;67.864;24.990;2023-05-10T19:34:39;7.55;;;4.10;;
30062;SDS011;16889;67.864;24.990;2023-05-10T19:39:25;7.97;;;3.88;;
30062;SDS011;16889;67.864;24.990;2023-05-10T19:44:11;7.15;;;3.85;;
30062;SDS011;16889;67.864;24.990;2023-05-10T19:48:57;9.88;;;3.65;;
30062;SDS011;16889;67.864;24.990;2023-05-10T19:53:43;9.00;;;3.90;;
30062;SDS011;16889;67.864;24.990;2023-05-10T19:58:29;8.02;;;4.13;;
30062;SDS011;16889;67.864;24.990;2023-05-10T20:03:15;8.48;;;4.20;;
30062;SDS011;16889;67.864;24.990;2023-05-10T20:08:01;9.52;;;3.78;;
30062;SDS011;16889;67.864;24.990;2023-05-10T20:12:47;8.75;;;4.03;;
30062;SDS011;16889;67.864;24.990;2023-05-10T20:17:37;10.40;;;4.35;;
30062;SDS011;16889;67.864;24.990;2023-05-10T20:22:23;9.20;;;4.57;;
30062;SDS011;16889;67.864;24.990;2023-05-10T20:27:10;10.85;;;4.05;;
30062;SDS011;16889;67.864;24.990;2023-05-10T20:31:56;8.48;;;4.35;;
30062;SDS011;16889;67.864;24.990;2023-05-10T20:36:42;13.77;;;4.55;;
30062;SDS011;16889;67.864;24.990;2023-05-10T20:41:28;13.05;;;4.78;;
30062;SDS011;16889;67.864;24.990;2023-05-10T20:46:14;8.55;;;4.55;;
30062;SDS011;16889;67.864;24.990;2023-05-10T20:51:01;7.85;;;4.13;;
30062;SDS011;16889;67.864;24.990;2023-05-10T20:55:47;9.13;;;4.05;;
30062;SDS011;16889;67.864;24.990;2023-05-10T21:00:33;9.75;;;4.30;;
30062;SDS011;16889;67.864;24.990;2023-05-10T21:05:19;8.82;;;4.43;;
30062;SDS011;16889;67.864;24.990;2023-05-10T21:10:05;13.73;;;4.70;;
30062;SDS011;16889;67.864;24.990;2023-05-10T21:14:52;9.03;;;4.77;;
30062;SDS011;16889;67.864;24.990;2023-05-10T21:19:38;11.35;;;4.22;;
30062;SDS011;16889;67.864;24.990;2023-05-10T21:24:24;9.10;;;4.10;;
30062;SDS011;16889;67.864;24.990;2023-05-10T21:29:10;13.27;;;4.40;;
30062;SDS011;16889;67.864;24.990;2023-05-10T21:33:56;7.10;;;3.75;;
30062;SDS011;16889;67.864;24.990;2023-05-10T21:38:42;9.25;;;4.00;;
30062;SDS011;16889;67.864;24.990;2023-05-10T21:43:29;8.40;;;4.03;;
30062;SDS011;16889;67.864;24.990;2023-05-10T21:48:15;9.35;;;4.60;;
30062;SDS011;16889;67.864;24.990;2023-05-10T21:53:01;6.53;;;3.70;;
30062;SDS011;16889;67.864;24.990;2023-05-10T21:57:48;7.97;;;3.83;;
30062;SDS011;16889;67.864;24.990;2023-05-10T22:02:34;10.20;;;4.28;;
30062;SDS011;16889;67.864;24.990;2023-05-10T22:07:20;7.32;;;4.07;;
30062;SDS011;16889;67.864;24.990;2023-05-10T22:12:06;7.03;;;4.00;;
30062;SDS011;16889;67.864;24.990;2023-05-10T22:16:53;8.00;;;3.70;;
30062;SDS011;16889;67.864;24.990;2023-05-10T22:21:39;12.00;;;4.10;;
30062;SDS011;16889;67.864;24.990;2023-05-10T22:26:25;12.40;;;4.28;;
30062;SDS011;16889;67.864;24.990;2023-05-10T22:31:11;9.50;;;4.53;;
30062;SDS011;16889;67.864;24.990;2023-05-10T22:35:57;8.20;;;4.75;;
30062;SDS011;16889;67.864;24.990;2023-05-10T22:40:43;12.27;;;5.00;;
30062;SDS011;16889;67.864;24.990;2023-05-10T22:45:29;11.70;;;4.45;;
30062;SDS011;16889;67.864;24.990;2023-05-10T22:50:15;12.77;;;4.85;;
30062;SDS011;16889;67.864;24.990;2023-05-10T22:55:01;7.40;;;4.32;;
30062;SDS011;16889;67.864;24.990;2023-05-10T22:59:47;10.40;;;4.97;;
30062;SDS011;16889;67.864;24.990;2023-05-10T23:04:33;9.75;;;4.30;;
30062;SDS011;16889;67.864;24.990;2023-05-10T23:09:19;9.60;;;4.97;;
30062;SDS011;16889;67.864;24.990;2023-05-10T23:14:05;10.75;;;5.30;;
30062;SDS011;16889;67.864;24.990;2023-05-10T23:18:51;8.50;;;5.38;;
30062;SDS011;16889;67.864;24.990;2023-05-10T23:23:37;8.75;;;4.68;;
30062;SDS011;16889;67.864;24.990;2023-05-10T23:28:23;10.50;;;5.38;;
30062;SDS011;16889;67.864;24.990;2023-05-10T23:33:09;8.57;;;4.80;;
30062;SDS011;16889;67.864;24.990;2023-05-10T23:37:58;9.35;;;4.80;;
30062;SDS011;16889;67.864;24.990;2023-05-10T23:42:43;9.40;;;5.75;;
30062;SDS011;16889;67.864;24.990;2023-05-10T23:47:29;13.45;;;5.53;;
30062;SDS011;16889;67.864;24.990;2023-05-10T23:52:15;12.90;;;5.90;;
30062;SDS011;16889;67.864;24.990;2023-05-10T23:57:01;8.15;;;4.70;;
